03:06
Airports
History
Links
Donate
Help keep this website running!
PayPal
Bitcoin
This page is community maintained. The information is intended for PC simulator navigation or reference.
Always use approved charts for navigation.
EDNO
Noerdlingen
Noerdlingen (EDNO)
Nördlingen, Bayern, Germany (86720)
(U)
Lat/Lng:48° 52' 21.98" N / 10° 30' 18.99" E
48.872772 / 10.505276
Elevation:1378'ft / 420mMSL
ID / ICAO:EDNO
Runways:1
Longest:04-22
Asphalt 499m / 1,637ft
Nearby Weather02:57 GMT 2017-09-21
Nearby weather at ETSN, NEUBURG located 34.0 nautical miles from EDNO
Altimeter: 30.18
Visibility: 0.4 statute miles
Wind: 1 knots (from 250°)
Temp: 7°c / 45°f
Humidity: 93.3%

METAR: ETSN 210257Z 25001KT 0600 FG FEW090 07/06 Q1022 RED

(Powered by phpweather)
Nearby VORs <50NM
Nearby NDBs
Runway 04 / 22
Dimensions:498.9 x 14.9m 1637' x 49'ft
Surface:Asphalt
Runway 04 [A]Runway 22 [B]
Heading:039°TH 219°TH
Lat:
Lng:
48° 52' 15.69"N
10° 30' 11.25"E
48° 52' 28.27"N
10° 30' 26.74"E
User Notes and Comments
48° 52' 21.98" N / 10° 30' 18.99" E
Distance To
Airport ID:
Nearby Airports
(U) AALEN HEIDENHEIM ELCHINGEN 12.8 NM
EDPA WSW 238°
(U) Giengen Brenz 21.1 NM
EDNG SW 218°
(C) Heubach 26.7 NM
EDTH W 259°
(C) NEUBURG 34.0 NM
ETSN ( WX ) ESE 109°
(C) Roth 36.0 NM
ETHR ( WX ) NE 48°
(C) Augsburg 36.6 NM
EDMA ( WX ) SSE 147°
(U) SCHWABISCH HALL 36.9 NM
EDTY WNW 297°
VFR Chart
Flight Planning at SkyVector.com